Time;durP1;ratioP1;P1;durP2;ratioP2;P2;SDS_P1;SDS_P2;PMS_P1;PMS_P2;Temp;Humidity;BMP_temperature;BMP_pressure;BME280_temperature;BME280_humidity;BME280_pressure;Samples;Min_cycle;Max_cycle;Signal;HPM_P1;HPM_P2
2021/01/11 00:01:49;;;;;;;33.43;19.70;;;;;;;;;;5052899;28;20624;-73
2021/01/11 00:04:54;;;;;;;36.83;20.97;;;;;;;;;;5055840;28;20609;-74
2021/01/11 00:07:59;;;;;;;35.70;20.33;;;;;;;;;;5055967;28;20641;-74
2021/01/11 00:11:03;;;;;;;37.40;21.87;;;;;;;;;;5055117;28;21004;-73
2021/01/11 00:14:07;;;;;;;37.93;20.67;;;;;;;;;;5043538;28;20609;-74
2021/01/11 00:17:11;;;;;;;42.17;21.30;;;;;;;;;;5054867;28;20558;-74
2021/01/11 00:20:16;;;;;;;36.07;20.47;;;;;;;;;;5055879;28;20565;-74
2021/01/11 00:23:20;;;;;;;33.53;19.00;;;;;;;;;;5055812;28;20542;-73
2021/01/11 00:26:24;;;;;;;33.43;19.03;;;;;;;;;;5054751;28;21211;-73
2021/01/11 00:29:28;;;;;;;32.83;17.63;;;;;;;;;;5055304;28;20644;-74
2021/01/11 00:32:39;;;;;;;32.93;18.60;;;;;;;;;;5054478;28;20641;-74
2021/01/11 00:35:43;;;;;;;32.40;19.10;;;;;;;;;;5055571;28;20889;-74
2021/01/11 00:38:47;;;;;;;34.00;19.03;;;;;;;;;;5056030;28;20541;-74
2021/01/11 00:41:56;;;;;;;34.67;19.73;;;;;;;;;;5056182;28;20629;-74
2021/01/11 00:45:01;;;;;;;32.90;18.37;;;;;;;;;;5055461;28;20539;-73
2021/01/11 00:48:06;;;;;;;31.77;19.23;;;;;;;;;;5055729;28;20609;-73
2021/01/11 00:51:10;;;;;;;36.83;21.10;;;;;;;;;;5054236;28;20629;-73
2021/01/11 00:54:15;;;;;;;35.30;19.37;;;;;;;;;;5054496;28;20558;-73
2021/01/11 00:57:20;;;;;;;35.03;20.57;;;;;;;;;;5054053;28;20609;-73
2021/01/11 01:00:36;;;;;;;35.13;18.67;;;;;;;;;;5042436;28;20554;-73
2021/01/11 01:03:57;;;;;;;35.30;18.90;;;;;;;;;;5045021;28;20546;-73
2021/01/11 01:07:02;;;;;;;34.70;20.00;;;;;;;;;;5054639;28;20609;-73
2021/01/11 01:10:07;;;;;;;35.63;20.20;;;;;;;;;;5054516;28;20649;-73
2021/01/11 01:13:11;;;;;;;33.90;19.23;;;;;;;;;;5053948;28;20610;-73
2021/01/11 01:16:25;;;;;;;32.07;19.23;;;;;;;;;;5054509;28;20550;-73
2021/01/11 01:19:29;;;;;;;30.43;17.63;;;;;;;;;;5053902;28;20543;-73
2021/01/11 01:22:33;;;;;;;31.87;18.50;;;;;;;;;;5054619;28;21198;-73
2021/01/11 01:25:37;;;;;;;32.67;17.63;;;;;;;;;;5054336;28;20549;-73
2021/01/11 01:28:42;;;;;;;29.20;16.73;;;;;;;;;;5054190;28;20957;-73
2021/01/11 01:31:46;;;;;;;26.73;15.90;;;;;;;;;;5054107;28;20637;-73
2021/01/11 01:34:50;;;;;;;26.87;16.23;;;;;;;;;;5053627;28;20562;-73
2021/01/11 01:37:54;;;;;;;28.27;16.13;;;;;;;;;;5054421;28;20554;-73
2021/01/11 01:40:59;;;;;;;29.53;16.37;;;;;;;;;;5053159;28;20641;-73
2021/01/11 01:44:03;;;;;;;27.07;15.80;;;;;;;;;;5053484;28;20537;-73
2021/01/11 01:47:07;;;;;;;28.23;15.20;;;;;;;;;;5053978;28;20562;-73
2021/01/11 01:50:12;;;;;;;26.63;15.53;;;;;;;;;;5054360;28;20594;-73
2021/01/11 01:53:16;;;;;;;25.43;14.73;;;;;;;;;;5054006;28;20566;-73
2021/01/11 01:56:22;;;;;;;26.55;16.23;;;;;;;;;;5052933;28;20554;-73
2021/01/11 01:59:27;;;;;;;24.53;14.37;;;;;;;;;;5053509;28;20570;-73
2021/01/11 02:02:32;;;;;;;24.83;14.47;;;;;;;;;;5053549;28;20629;-73
2021/01/11 02:05:36;;;;;;;24.70;15.00;;;;;;;;;;5053110;28;20551;-73
2021/01/11 02:09:01;;;;;;;27.37;15.07;;;;;;;;;;5053817;28;20605;-73
2021/01/11 02:12:13;;;;;;;24.60;15.00;;;;;;;;;;5053518;28;20637;-73
2021/01/11 02:15:27;;;;;;;23.98;13.95;;;;;;;;;;5052582;28;20613;-73
2021/01/11 02:18:56;;;;;;;30.33;15.85;;;;;;;;;;5053938;28;20187;-73
2021/01/11 02:22:07;;;;;;;25.95;13.55;;;;;;;;;;5053363;28;20260;-73
2021/01/11 02:25:28;;;;;;;23.80;14.23;;;;;;;;;;5052924;28;20550;-73
2021/01/11 02:28:50;;;;;;;25.95;14.98;;;;;;;;;;5052925;28;20191;-73
2021/01/11 02:31:57;;;;;;;25.05;14.40;;;;;;;;;;5052331;28;20238;-73
2021/01/11 02:35:05;;;;;;;25.38;14.55;;;;;;;;;;5053431;28;20203;-73
2021/01/11 02:38:09;;;;;;;29.08;15.27;;;;;;;;;;5053394;28;20187;-73
2021/01/11 02:41:13;;;;;;;24.45;13.55;;;;;;;;;;5052492;28;20218;-73
2021/01/11 02:44:17;;;;;;;27.30;14.75;;;;;;;;;;5053374;28;20191;-73
2021/01/11 02:47:38;;;;;;;21.35;12.65;;;;;;;;;;5053586;28;20178;-73
2021/01/11 02:50:54;;;;;;;21.38;13.10;;;;;;;;;;5053137;28;20701;-73
2021/01/11 02:54:09;;;;;;;26.45;13.93;;;;;;;;;;5052768;28;20203;-73
2021/01/11 02:57:30;;;;;;;25.35;14.32;;;;;;;;;;5052129;28;20203;-73
2021/01/11 03:00:38;;;;;;;26.30;14.75;;;;;;;;;;5041337;28;20199;-73
2021/01/11 03:03:46;;;;;;;25.77;14.02;;;;;;;;;;5052859;28;20654;-73
2021/01/11 03:07:01;;;;;;;24.70;15.00;;;;;;;;;;5052566;28;20187;-73
2021/01/11 03:10:06;;;;;;;26.90;15.85;;;;;;;;;;5053131;28;20227;-73
2021/01/11 03:13:10;;;;;;;29.20;15.35;;;;;;;;;;5051970;28;20207;-73
2021/01/11 03:16:14;;;;;;;28.05;15.43;;;;;;;;;;5052877;28;20180;-73
2021/01/11 03:19:19;;;;;;;31.50;16.73;;;;;;;;;;5052726;28;20191;-73
2021/01/11 03:22:23;;;;;;;27.40;15.25;;;;;;;;;;5052553;28;20218;-73
2021/01/11 03:25:28;;;;;;;28.30;16.27;;;;;;;;;;5052616;28;20187;-73
2021/01/11 03:28:32;;;;;;;28.48;15.63;;;;;;;;;;5051848;28;20542;-73
2021/01/11 03:31:36;;;;;;;32.20;16.50;;;;;;;;;;5052624;28;20271;-73
2021/01/11 03:34:40;;;;;;;28.50;15.07;;;;;;;;;;5040638;28;20203;-73
2021/01/11 03:37:44;;;;;;;25.33;14.52;;;;;;;;;;5053886;28;20195;-73
2021/01/11 03:40:48;;;;;;;30.80;15.65;;;;;;;;;;5056644;28;20218;-73
2021/01/11 03:43:52;;;;;;;34.63;18.30;;;;;;;;;;5056614;28;20187;-73
2021/01/11 03:46:57;;;;;;;129.63;22.42;;;;;;;;;;5056285;28;20654;-73
2021/01/11 03:50:05;;;;;;;32.40;17.02;;;;;;;;;;5056335;28;20223;-73
2021/01/11 03:53:10;;;;;;;29.48;16.63;;;;;;;;;;5056343;28;20195;-73
2021/01/11 03:56:14;;;;;;;30.88;16.75;;;;;;;;;;5055552;28;20179;-73
2021/01/11 03:59:18;;;;;;;35.78;19.38;;;;;;;;;;5055517;28;20547;-73
2021/01/11 04:02:23;;;;;;;33.83;16.35;;;;;;;;;;5056428;28;20227;-73
2021/01/11 04:05:27;;;;;;;30.25;15.95;;;;;;;;;;5056440;28;20203;-73
2021/01/11 04:08:32;;;;;;;32.08;17.25;;;;;;;;;;5055807;28;20184;-73
2021/01/11 04:11:35;;;;;;;33.13;17.35;;;;;;;;;;5054930;28;20215;-73
2021/01/11 04:14:39;;;;;;;45.65;21.02;;;;;;;;;;5078743;23;20238;-73
2021/01/11 04:17:44;;;;;;;44.80;19.85;;;;;;;;;;5075685;28;20175;-73
2021/01/11 04:20:48;;;;;;;40.70;20.13;;;;;;;;;;5075513;28;20229;-72
2021/01/11 04:23:52;;;;;;;36.58;19.17;;;;;;;;;;5075606;28;20182;-73
2021/01/11 04:26:56;;;;;;;33.92;17.02;;;;;;;;;;5074926;28;20207;-73
2021/01/11 04:30:00;;;;;;;40.95;17.67;;;;;;;;;;5056768;28;20218;-73
2021/01/11 04:33:04;;;;;;;35.22;17.15;;;;;;;;;;5055639;28;20645;-73
2021/01/11 04:36:08;;;;;;;37.42;18.67;;;;;;;;;;5043343;28;20274;-73
2021/01/11 04:39:13;;;;;;;37.28;17.55;;;;;;;;;;5055252;28;20187;-73
2021/01/11 04:42:34;;;;;;;33.67;16.15;;;;;;;;;;5054341;28;20223;-73
2021/01/11 04:45:38;;;;;;;39.53;18.33;;;;;;;;;;5068841;28;20566;-73
2021/01/11 04:48:43;;;;;;;38.72;17.65;;;;;;;;;;5074026;28;20206;-73
2021/01/11 04:51:47;;;;;;;41.38;19.50;;;;;;;;;;5075469;28;20585;-73
2021/01/11 04:54:55;;;;;;;43.80;19.67;;;;;;;;;;5075004;28;20653;-73
2021/01/11 04:58:06;;;;;;;36.63;16.85;;;;;;;;;;5074099;28;20682;-73
2021/01/11 05:01:13;;;;;;;38.97;18.48;;;;;;;;;;5074122;28;20218;-73
2021/01/11 05:04:18;;;;;;;65.35;20.02;;;;;;;;;;5071341;28;20206;-73
2021/01/11 05:07:23;;;;;;;50.75;19.30;;;;;;;;;;5054186;28;20199;-73
2021/01/11 05:10:30;;;;;;;46.13;20.63;;;;;;;;;;5054770;28;20214;-73
2021/01/11 05:13:34;;;;;;;47.58;20.15;;;;;;;;;;5055010;28;20666;-73
2021/01/11 05:16:39;;;;;;;60.65;21.55;;;;;;;;;;5048750;28;20188;-72
2021/01/11 05:19:43;;;;;;;44.40;20.58;;;;;;;;;;5034410;28;20196;-73
2021/01/11 05:22:48;;;;;;;35.63;18.00;;;;;;;;;;5035055;28;20536;-73
2021/01/11 05:25:53;;;;;;;46.05;19.08;;;;;;;;;;5044708;28;20211;-73
2021/01/11 05:29:16;;;;;;;31.67;16.80;;;;;;;;;;5034265;28;20203;-73
2021/01/11 05:32:25;;;;;;;47.63;19.25;;;;;;;;;;5059267;28;20797;-73
2021/01/11 05:35:30;;;;;;;33.08;17.30;;;;;;;;;;5054481;28;20192;-73
2021/01/11 05:38:35;;;;;;;37.30;18.95;;;;;;;;;;5053490;28;20207;-73
2021/01/11 05:41:41;;;;;;;36.05;17.52;;;;;;;;;;5051292;28;20700;-73
2021/01/11 05:44:45;;;;;;;28.55;15.75;;;;;;;;;;5073465;28;20541;-73
2021/01/11 05:48:06;;;;;;;47.92;17.05;;;;;;;;;;5074289;28;20194;-73
2021/01/11 05:51:11;;;;;;;70.45;17.27;;;;;;;;;;5072561;28;20242;-73
2021/01/11 05:54:26;;;;;;;46.22;18.02;;;;;;;;;;5038876;28;20210;-73
2021/01/11 05:57:31;;;;;;;37.15;15.60;;;;;;;;;;5071540;28;20207;-73
2021/01/11 06:00:37;;;;;;;38.42;17.10;;;;;;;;;;5032349;28;20651;-73
2021/01/11 06:03:41;;;;;;;34.55;16.38;;;;;;;;;;5065899;23;20231;-73
2021/01/11 06:06:47;;;;;;;31.08;17.13;;;;;;;;;;5052415;28;20209;-73
2021/01/11 06:09:51;;;;;;;37.63;16.45;;;;;;;;;;5051182;28;20669;-73
2021/01/11 06:12:55;;;;;;;29.17;15.02;;;;;;;;;;5033802;28;20187;-73
2021/01/11 06:16:01;;;;;;;43.83;16.50;;;;;;;;;;5033696;28;20192;-73
2021/01/11 06:19:05;;;;;;;33.72;17.50;;;;;;;;;;5032641;28;20200;-73
2021/01/11 06:22:09;;;;;;;36.05;16.75;;;;;;;;;;5033661;28;20697;-73
2021/01/11 06:25:20;;;;;;;31.48;16.88;;;;;;;;;;5033396;28;20191;-73
2021/01/11 06:28:30;;;;;;;32.45;16.92;;;;;;;;;;5033860;28;20180;-73
2021/01/11 06:31:35;;;;;;;30.65;16.50;;;;;;;;;;5033142;28;20232;-73
2021/01/11 06:34:41;;;;;;;35.47;16.55;;;;;;;;;;5033289;28;20188;-73
2021/01/11 06:37:45;;;;;;;34.17;17.27;;;;;;;;;;5033516;28;20192;-73
2021/01/11 06:41:02;;;;;;;37.15;15.32;;;;;;;;;;5032585;28;20315;-73
2021/01/11 06:44:08;;;;;;;32.28;15.10;;;;;;;;;;5033417;28;20239;-73
2021/01/11 06:47:25;;;;;;;32.17;15.77;;;;;;;;;;5033094;28;20188;-73
2021/01/11 06:50:31;;;;;;;31.08;15.77;;;;;;;;;;5033471;28;20236;-73
2021/01/11 06:53:38;;;;;;;28.75;16.13;;;;;;;;;;5033319;28;20195;-73
2021/01/11 06:56:44;;;;;;;33.42;16.17;;;;;;;;;;5032764;28;20544;-73
2021/01/11 06:59:54;;;;;;;31.30;15.32;;;;;;;;;;5033263;28;20183;-73
2021/01/11 07:02:58;;;;;;;34.38;15.57;;;;;;;;;;5032711;28;20559;-73
2021/01/11 07:06:03;;;;;;;33.70;16.30;;;;;;;;;;5032450;28;20184;-73
2021/01/11 07:09:11;;;;;;;34.42;16.15;;;;;;;;;;5033199;28;20192;-73
2021/01/11 07:12:18;;;;;;;33.10;15.60;;;;;;;;;;5036155;28;20208;-72
2021/01/11 07:15:22;;;;;;;31.77;15.45;;;;;;;;;;5037146;28;20196;-71
2021/01/11 07:18:38;;;;;;;32.53;16.05;;;;;;;;;;5036044;28;20192;-73
2021/01/11 07:21:42;;;;;;;31.42;14.40;;;;;;;;;;5036045;28;20220;-72
2021/01/11 07:24:46;;;;;;;30.50;15.30;;;;;;;;;;5035898;28;20188;-73
2021/01/11 07:27:59;;;;;;;32.47;14.40;;;;;;;;;;5036387;28;20543;-73
2021/01/11 07:31:05;;;;;;;30.67;15.13;;;;;;;;;;5036028;28;20232;-73
2021/01/11 07:34:10;;;;;;;31.92;14.88;;;;;;;;;;5036560;28;20192;-73
2021/01/11 07:37:14;;;;;;;34.35;15.40;;;;;;;;;;5036750;28;20192;-73
2021/01/11 07:40:22;;;;;;;32.50;16.08;;;;;;;;;;5035662;28;20185;-73
2021/01/11 07:43:26;;;;;;;35.40;16.85;;;;;;;;;;5035871;28;20204;-73
2021/01/11 07:46:30;;;;;;;34.10;15.18;;;;;;;;;;5036600;28;20207;-73
2021/01/11 07:49:36;;;;;;;33.97;15.80;;;;;;;;;;5036491;28;20195;-73
2021/01/11 07:52:41;;;;;;;33.58;15.00;;;;;;;;;;5035369;28;20227;-73
2021/01/11 07:55:45;;;;;;;31.85;16.20;;;;;;;;;;5024293;28;20204;-73
2021/01/11 07:58:51;;;;;;;40.97;18.35;;;;;;;;;;5036657;28;20188;-73
2021/01/11 08:01:56;;;;;;;33.80;16.42;;;;;;;;;;5035866;28;20227;-73
2021/01/11 08:05:00;;;;;;;30.80;14.43;;;;;;;;;;5036113;28;20215;-73
2021/01/11 08:08:06;;;;;;;36.65;16.08;;;;;;;;;;5023893;28;20195;-73
2021/01/11 08:11:10;;;;;;;31.77;16.20;;;;;;;;;;5023665;28;20224;-73
2021/01/11 08:14:14;;;;;;;31.05;13.95;;;;;;;;;;5036139;28;20188;-73
2021/01/11 08:17:20;;;;;;;34.88;15.50;;;;;;;;;;5035698;28;20184;-73
2021/01/11 08:20:24;;;;;;;33.78;15.20;;;;;;;;;;5036347;28;20199;-73
2021/01/11 08:23:29;;;;;;;33.92;15.20;;;;;;;;;;5034993;28;20192;-73
2021/01/11 08:26:44;;;;;;;33.42;15.82;;;;;;;;;;5035807;28;20203;-73
2021/01/11 08:29:49;;;;;;;35.85;14.75;;;;;;;;;;5035263;28;20193;-73
2021/01/11 08:32:53;;;;;;;31.10;15.02;;;;;;;;;;5035511;28;20181;-73
2021/01/11 08:36:18;;;;;;;30.20;14.20;;;;;;;;;;5034894;28;20656;-73
2021/01/11 08:39:24;;;;;;;31.65;14.30;;;;;;;;;;5034967;28;20196;-73
2021/01/11 08:42:29;;;;;;;28.25;13.85;;;;;;;;;;5034852;28;20235;-73
2021/01/11 08:45:33;;;;;;;33.85;15.40;;;;;;;;;;5035666;28;20192;-73
2021/01/11 08:48:37;;;;;;;35.83;16.13;;;;;;;;;;5037277;28;20192;-73
2021/01/11 08:51:41;;;;;;;99.05;46.38;;;;;;;;;;5054896;28;20227;-73
2021/01/11 08:54:45;;;;;;;34.33;16.73;;;;;;;;;;5054216;28;20215;-73
2021/01/11 08:57:59;;;;;;;31.08;15.70;;;;;;;;;;5054411;28;20183;-73
2021/01/11 09:01:11;;;;;;;37.90;17.27;;;;;;;;;;5051677;28;20751;-73
2021/01/11 09:04:29;;;;;;;34.60;17.95;;;;;;;;;;5053968;28;20227;-73
2021/01/11 09:07:33;;;;;;;36.22;18.60;;;;;;;;;;5043054;28;20191;-73
2021/01/11 09:10:43;;;;;;;35.67;17.60;;;;;;;;;;5053771;28;20658;-73
2021/01/11 09:13:47;;;;;;;37.83;18.42;;;;;;;;;;5048989;28;20203;-73
2021/01/11 09:16:57;;;;;;;28.00;15.50;;;;;;;;;;5054490;28;20689;-73
2021/01/11 09:20:05;;;;;;;35.22;16.02;;;;;;;;;;5054810;28;20682;-73
2021/01/11 09:23:11;;;;;;;31.75;17.02;;;;;;;;;;5053806;28;20195;-73
2021/01/11 09:26:15;;;;;;;32.92;15.07;;;;;;;;;;5054365;28;20211;-73
2021/01/11 09:29:19;;;;;;;33.30;16.13;;;;;;;;;;5042047;28;20203;-73
2021/01/11 09:32:24;;;;;;;31.95;14.90;;;;;;;;;;5053439;28;20219;-73
2021/01/11 09:35:28;;;;;;;30.02;15.13;;;;;;;;;;5053398;28;20184;-73
2021/01/11 09:38:32;;;;;;;29.95;14.90;;;;;;;;;;5054694;28;20183;-73
2021/01/11 09:41:42;;;;;;;30.60;13.45;;;;;;;;;;5053373;28;20219;-73
2021/01/11 09:44:46;;;;;;;27.10;14.02;;;;;;;;;;5054623;28;20192;-73
2021/01/11 09:47:51;;;;;;;26.67;14.05;;;;;;;;;;5054310;28;20183;-73
2021/01/11 09:50:55;;;;;;;29.67;14.52;;;;;;;;;;5054127;28;20227;-73
2021/01/11 09:53:59;;;;;;;31.52;14.63;;;;;;;;;;5053854;28;20211;-73
2021/01/11 09:57:04;;;;;;;31.23;14.85;;;;;;;;;;5053814;28;20183;-73
2021/01/11 10:00:15;;;;;;;24.02;13.20;;;;;;;;;;5054005;28;20530;-73
2021/01/11 10:03:21;;;;;;;23.65;12.88;;;;;;;;;;5053594;28;20542;-74
2021/01/11 10:06:26;;;;;;;26.92;13.48;;;;;;;;;;5053155;28;20653;-73
2021/01/11 10:09:30;;;;;;;27.20;14.43;;;;;;;;;;5053837;28;20531;-73
2021/01/11 10:12:34;;;;;;;26.40;14.43;;;;;;;;;;5053803;28;20223;-73
2021/01/11 10:15:38;;;;;;;26.23;13.88;;;;;;;;;;5053884;28;20187;-73
2021/01/11 10:18:42;;;;;;;26.73;13.30;;;;;;;;;;5053960;28;20226;-73
2021/01/11 10:21:48;;;;;;;25.48;13.57;;;;;;;;;;5052502;28;20235;-73
2021/01/11 10:24:52;;;;;;;27.67;14.10;;;;;;;;;;5053612;28;20196;-73
2021/01/11 10:27:56;;;;;;;28.02;13.85;;;;;;;;;;5053547;28;20558;-73
2021/01/11 10:31:00;;;;;;;27.23;14.20;;;;;;;;;;5053417;28;20222;-73
2021/01/11 10:34:04;;;;;;;26.40;14.03;;;;;;;;;;5053544;28;20546;-73
2021/01/11 10:37:08;;;;;;;30.85;14.57;;;;;;;;;;5053420;28;21100;-73
2021/01/11 10:40:13;;;;;;;28.07;14.47;;;;;;;;;;5052495;28;20187;-73
2021/01/11 10:43:17;;;;;;;23.83;13.90;;;;;;;;;;5053311;28;21156;-73
2021/01/11 10:46:21;;;;;;;29.42;14.77;;;;;;;;;;5052219;28;20192;-73
2021/01/11 10:49:26;;;;;;;24.17;13.43;;;;;;;;;;5053363;28;20191;-73
2021/01/11 10:52:31;;;;;;;30.00;14.57;;;;;;;;;;5052906;28;20637;-73
2021/01/11 10:55:35;;;;;;;23.00;12.73;;;;;;;;;;5053342;28;20554;-73
2021/01/11 10:58:39;;;;;;;31.08;14.75;;;;;;;;;;5052351;28;20182;-73
2021/01/11 11:01:43;;;;;;;34.27;16.87;;;;;;;;;;5052826;28;20215;-73
2021/01/11 11:04:47;;;;;;;30.20;16.13;;;;;;;;;;5051968;28;20617;-73
2021/01/11 11:07:52;;;;;;;39.03;19.43;;;;;;;;;;5053109;28;20183;-73
2021/01/11 11:10:56;;;;;;;37.93;18.47;;;;;;;;;;5052881;28;20637;-73
2021/01/11 11:14:00;;;;;;;44.33;22.23;;;;;;;;;;5053327;28;20550;-73
2021/01/11 11:17:08;;;;;;;35.77;18.63;;;;;;;;;;5052787;28;20558;-73
2021/01/11 11:20:13;;;;;;;32.40;15.57;;;;;;;;;;5052745;28;20910;-73
2021/01/11 11:23:19;;;;;;;67.43;33.67;;;;;;;;;;5052637;28;20211;-73
2021/01/11 11:26:23;;;;;;;40.63;21.20;;;;;;;;;;5052665;28;20207;-73
2021/01/11 11:29:27;;;;;;;31.73;16.63;;;;;;;;;;5052645;28;20183;-73
2021/01/11 11:32:34;;;;;;;31.53;16.63;;;;;;;;;;5052561;28;20621;-73
2021/01/11 11:35:41;;;;;;;40.27;20.87;;;;;;;;;;5053127;28;20546;-73
2021/01/11 11:38:45;;;;;;;29.47;15.10;;;;;;;;;;5052557;28;20692;-73
2021/01/11 11:41:55;;;;;;;33.40;16.30;;;;;;;;;;5052415;28;20653;-73
2021/01/11 11:44:59;;;;;;;35.83;15.57;;;;;;;;;;5052580;28;20551;-73
2021/01/11 11:48:03;;;;;;;30.30;15.33;;;;;;;;;;5052963;28;20550;-73
2021/01/11 11:51:08;;;;;;;31.57;16.03;;;;;;;;;;5052802;28;20629;-73
2021/01/11 11:54:12;;;;;;;28.97;15.40;;;;;;;;;;5051596;28;20597;-73
2021/01/11 11:57:16;;;;;;;29.52;15.95;;;;;;;;;;5052723;28;20546;-73
2021/01/11 12:00:21;;;;;;;28.90;15.53;;;;;;;;;;5078659;23;20242;-73
2021/01/11 12:03:25;;;;;;;32.83;15.63;;;;;;;;;;5076162;28;20624;-73
2021/01/11 12:06:37;;;;;;;31.70;15.83;;;;;;;;;;5076024;28;20612;-73
2021/01/11 12:09:41;;;;;;;33.42;15.50;;;;;;;;;;5075552;28;20565;-72
2021/01/11 12:12:47;;;;;;;27.83;14.47;;;;;;;;;;5075087;28;20226;-72
2021/01/11 12:15:52;;;;;;;31.43;16.00;;;;;;;;;;5075777;28;20959;-72
2021/01/11 12:18:56;;;;;;;29.58;15.60;;;;;;;;;;5076079;28;20541;-72
2021/01/11 12:22:00;;;;;;;30.77;16.40;;;;;;;;;;5074978;28;20230;-73
2021/01/11 12:25:06;;;;;;;28.80;14.50;;;;;;;;;;5057500;28;20613;-73
2021/01/11 12:28:10;;;;;;;32.13;16.47;;;;;;;;;;5055186;28;20554;-73
2021/01/11 12:31:14;;;;;;;29.53;16.07;;;;;;;;;;5054615;28;20644;-73
2021/01/11 12:34:18;;;;;;;30.07;15.87;;;;;;;;;;5055641;28;20613;-73
2021/01/11 12:37:23;;;;;;;32.20;16.00;;;;;;;;;;5055561;28;20543;-73
2021/01/11 12:40:27;;;;;;;28.67;15.77;;;;;;;;;;5055196;28;20558;-72
2021/01/11 12:43:30;;;;;;;31.27;16.53;;;;;;;;;;5055395;28;20617;-73
2021/01/11 12:46:36;;;;;;;30.33;15.83;;;;;;;;;;5055285;28;20629;-72
2021/01/11 12:49:41;;;;;;;31.33;16.23;;;;;;;;;;5055303;28;20546;-73
2021/01/11 12:52:47;;;;;;;32.90;16.50;;;;;;;;;;5055501;28;20621;-73
2021/01/11 12:55:51;;;;;;;35.47;16.23;;;;;;;;;;5055194;28;20546;-73
2021/01/11 12:58:57;;;;;;;29.90;15.67;;;;;;;;;;5056629;28;20550;-73
2021/01/11 13:02:02;;;;;;;32.10;14.93;;;;;;;;;;5073848;28;20625;-73
2021/01/11 13:05:07;;;;;;;29.90;15.93;;;;;;;;;;5063122;28;20545;-73
2021/01/11 13:08:11;;;;;;;31.83;15.70;;;;;;;;;;5075009;28;20545;-73
2021/01/11 13:11:20;;;;;;;32.73;16.23;;;;;;;;;;5074874;28;21214;-72
2021/01/11 13:14:24;;;;;;;32.20;16.75;;;;;;;;;;5075219;28;21074;-73
2021/01/11 13:17:29;;;;;;;31.17;16.00;;;;;;;;;;5074546;28;20202;-73
2021/01/11 13:20:33;;;;;;;30.20;15.82;;;;;;;;;;5074714;28;20601;-73
2021/01/11 13:23:37;;;;;;;33.08;17.20;;;;;;;;;;5073807;28;20214;-73
2021/01/11 13:26:42;;;;;;;33.22;17.02;;;;;;;;;;5073892;28;20182;-72
2021/01/11 13:29:46;;;;;;;30.50;15.73;;;;;;;;;;5074061;28;20641;-73
2021/01/11 13:32:51;;;;;;;32.72;16.13;;;;;;;;;;5074004;28;20538;-73
2021/01/11 13:35:55;;;;;;;32.10;16.23;;;;;;;;;;5074521;28;20190;-71
2021/01/11 13:39:01;;;;;;;30.80;16.50;;;;;;;;;;5074515;28;20554;-73
2021/01/11 13:42:12;;;;;;;28.80;16.50;;;;;;;;;;5073223;28;20628;-72
2021/01/11 13:45:16;;;;;;;30.77;16.27;;;;;;;;;;5074264;28;20629;-73
2021/01/11 13:48:20;;;;;;;30.90;16.63;;;;;;;;;;5074356;28;20249;-73
2021/01/11 13:51:24;;;;;;;33.05;16.33;;;;;;;;;;5074114;28;20242;-73
2021/01/11 13:54:28;;;;;;;32.53;16.08;;;;;;;;;;5074301;28;20186;-73
2021/01/11 13:57:33;;;;;;;33.53;18.45;;;;;;;;;;5074114;28;20183;-73
2021/01/11 14:00:37;;;;;;;34.80;16.10;;;;;;;;;;5073876;28;20222;-73
2021/01/11 14:03:41;;;;;;;36.03;16.40;;;;;;;;;;5078738;28;20206;-73
2021/01/11 14:06:46;;;;;;;32.20;16.27;;;;;;;;;;5073914;28;20545;-73
2021/01/11 14:09:50;;;;;;;31.33;15.57;;;;;;;;;;5073749;28;20186;-72
2021/01/11 14:12:55;;;;;;;31.60;15.27;;;;;;;;;;5073074;28;20183;-73
2021/01/11 14:15:59;;;;;;;27.67;14.98;;;;;;;;;;5073523;28;20186;-73
2021/01/11 14:19:03;;;;;;;33.97;15.57;;;;;;;;;;5072927;28;20534;-72
2021/01/11 14:22:08;;;;;;;33.72;15.57;;;;;;;;;;5071901;28;20222;-72
2021/01/11 14:25:12;;;;;;;30.33;15.13;;;;;;;;;;5072833;28;20178;-72
2021/01/11 14:28:16;;;;;;;28.00;14.73;;;;;;;;;;5073901;28;20186;-72
2021/01/11 14:31:20;;;;;;;30.42;15.13;;;;;;;;;;5073298;28;20226;-72
2021/01/11 14:34:25;;;;;;;30.03;14.60;;;;;;;;;;5072619;28;20202;-72
2021/01/11 14:37:29;;;;;;;30.65;14.95;;;;;;;;;;5073423;28;21100;-72
2021/01/11 14:40:33;;;;;;;33.55;15.75;;;;;;;;;;5073535;28;20182;-72
2021/01/11 14:43:39;;;;;;;157.35;77.18;;;;;;;;;;5073556;28;20214;-72
2021/01/11 14:46:43;;;;;;;95.28;47.63;;;;;;;;;;5073340;28;20206;-72
2021/01/11 14:49:47;;;;;;;34.58;17.00;;;;;;;;;;5073863;28;20186;-72
2021/01/11 14:52:52;;;;;;;33.38;17.27;;;;;;;;;;5073118;28;20186;-72
2021/01/11 14:55:57;;;;;;;29.27;15.60;;;;;;;;;;5073109;28;20187;-72
2021/01/11 14:59:01;;;;;;;33.13;15.23;;;;;;;;;;5072347;28;20676;-72
2021/01/11 15:02:05;;;;;;;37.33;15.48;;;;;;;;;;5073093;28;20226;-72
2021/01/11 15:05:09;;;;;;;34.17;15.60;;;;;;;;;;5073560;28;20198;-72
2021/01/11 15:08:14;;;;;;;33.42;15.57;;;;;;;;;;5070103;28;20190;-72
2021/01/11 15:11:18;;;;;;;31.02;16.23;;;;;;;;;;5052912;28;20223;-73
2021/01/11 15:14:23;;;;;;;31.35;14.90;;;;;;;;;;5051995;28;20183;-73
2021/01/11 15:17:27;;;;;;;33.47;17.40;;;;;;;;;;5058756;28;20198;-73
2021/01/11 15:20:32;;;;;;;31.88;15.90;;;;;;;;;;5055639;28;20199;-72
2021/01/11 15:23:37;;;;;;;32.90;16.05;;;;;;;;;;5051780;28;20227;-73
2021/01/11 15:26:41;;;;;;;37.83;16.40;;;;;;;;;;5051817;28;20199;-73
2021/01/11 15:29:45;;;;;;;32.92;15.93;;;;;;;;;;5053598;28;20195;-72
2021/01/11 15:32:49;;;;;;;33.38;16.38;;;;;;;;;;5060574;28;20214;-72
2021/01/11 15:35:58;;;;;;;31.38;15.40;;;;;;;;;;5071752;28;20554;-72
2021/01/11 15:39:04;;;;;;;29.90;14.57;;;;;;;;;;5075892;28;20186;-72
2021/01/11 15:42:08;;;;;;;31.80;14.88;;;;;;;;;;5076653;28;20222;-72
2021/01/11 15:45:14;;;;;;;33.05;15.63;;;;;;;;;;5058338;28;20199;-72
2021/01/11 15:48:18;;;;;;;33.75;15.52;;;;;;;;;;5056116;28;20538;-72
2021/01/11 15:51:27;;;;;;;32.97;16.45;;;;;;;;;;5056562;28;20230;-75
2021/01/11 15:54:32;;;;;;;33.45;16.65;;;;;;;;;;5067301;28;20199;-72
2021/01/11 15:57:37;;;;;;;32.00;14.75;;;;;;;;;;5076369;28;20182;-72
2021/01/11 16:00:41;;;;;;;28.38;14.10;;;;;;;;;;5075248;28;20206;-73
2021/01/11 16:03:49;;;;;;;31.48;15.60;;;;;;;;;;5070770;28;20215;-72
2021/01/11 16:06:55;;;;;;;31.55;14.13;;;;;;;;;;5068694;28;20210;-72
2021/01/11 16:09:59;;;;;;;40.25;18.05;;;;;;;;;;5073817;28;20202;-72
2021/01/11 16:13:03;;;;;;;45.67;23.75;;;;;;;;;;5062763;28;20206;-72
2021/01/11 16:16:12;;;;;;;33.50;16.20;;;;;;;;;;5055047;28;20211;-72
2021/01/11 16:19:17;;;;;;;32.15;16.38;;;;;;;;;;5055597;28;20207;-72
2021/01/11 16:22:21;;;;;;;30.63;15.70;;;;;;;;;;5055556;28;20215;-72
2021/01/11 16:25:25;;;;;;;38.90;16.02;;;;;;;;;;5054737;28;20195;-72
2021/01/11 16:28:29;;;;;;;30.38;14.43;;;;;;;;;;5054732;28;20207;-72
2021/01/11 16:31:34;;;;;;;34.25;15.40;;;;;;;;;;5071049;28;20226;-72
2021/01/11 16:34:39;;;;;;;28.38;13.63;;;;;;;;;;5074756;28;20198;-72
2021/01/11 16:37:44;;;;;;;36.00;15.98;;;;;;;;;;5062193;28;20207;-72
2021/01/11 16:40:48;;;;;;;29.30;14.23;;;;;;;;;;5054635;28;20222;-72
2021/01/11 16:43:54;;;;;;;33.08;15.00;;;;;;;;;;5054521;28;20211;-72
2021/01/11 16:46:58;;;;;;;40.85;16.60;;;;;;;;;;5066587;28;20190;-72
2021/01/11 16:50:03;;;;;;;36.45;16.63;;;;;;;;;;5073634;28;20188;-72
2021/01/11 16:53:08;;;;;;;35.17;14.82;;;;;;;;;;5074577;28;20191;-72
2021/01/11 16:56:17;;;;;;;33.60;15.55;;;;;;;;;;5075287;28;20193;-72
2021/01/11 16:59:21;;;;;;;38.20;15.32;;;;;;;;;;5074750;28;20207;-72
2021/01/11 17:02:25;;;;;;;35.35;15.50;;;;;;;;;;5057327;28;20594;-72
2021/01/11 17:05:29;;;;;;;38.63;15.88;;;;;;;;;;5054116;28;20215;-72
2021/01/11 17:08:33;;;;;;;32.58;15.32;;;;;;;;;;5054488;28;20187;-72
2021/01/11 17:11:37;;;;;;;40.03;15.93;;;;;;;;;;5060507;28;20222;-73
2021/01/11 17:14:42;;;;;;;44.55;18.75;;;;;;;;;;5073222;28;20195;-73
2021/01/11 17:17:46;;;;;;;45.47;16.55;;;;;;;;;;5054217;28;20673;-73
2021/01/11 17:20:50;;;;;;;37.08;15.98;;;;;;;;;;5061939;28;20222;-72
2021/01/11 17:23:58;;;;;;;43.40;17.33;;;;;;;;;;5062969;28;20214;-72
2021/01/11 17:27:03;;;;;;;43.97;17.75;;;;;;;;;;5062486;28;20183;-72
2021/01/11 17:30:08;;;;;;;46.20;17.33;;;;;;;;;;5076400;28;20187;-73
2021/01/11 17:33:12;;;;;;;45.90;18.92;;;;;;;;;;5055074;28;20199;-73
2021/01/11 17:36:22;;;;;;;44.03;18.83;;;;;;;;;;5054887;28;20574;-73
2021/01/11 17:39:26;;;;;;;44.00;17.77;;;;;;;;;;5043409;28;20566;-72
2021/01/11 17:42:30;;;;;;;46.97;19.13;;;;;;;;;;5051843;28;20226;-72
2021/01/11 17:45:34;;;;;;;46.67;18.60;;;;;;;;;;5053824;28;20234;-73
2021/01/11 17:48:39;;;;;;;43.45;18.55;;;;;;;;;;5054267;28;20201;-72
2021/01/11 17:51:44;;;;;;;43.15;17.55;;;;;;;;;;5043057;28;20546;-73
2021/01/11 17:54:48;;;;;;;45.78;17.25;;;;;;;;;;5063152;28;20186;-73
2021/01/11 17:57:52;;;;;;;41.72;17.90;;;;;;;;;;5059029;28;20194;-73
2021/01/11 18:00:56;;;;;;;48.00;18.65;;;;;;;;;;5059501;28;20233;-73